createdAt,value
2023-02-19T00:01:54.305Z,121.75
2023-02-19T00:04:23.088Z,120.82
2023-02-19T00:06:50.888Z,121.30
2023-02-19T00:09:19.612Z,128.50
2023-02-19T00:11:48.138Z,130.50
2023-02-19T00:14:17.828Z,132.45
2023-02-19T00:16:46.283Z,125.60
2023-02-19T00:19:16.514Z,114.05
2023-02-19T00:21:44.849Z,106.13
2023-02-19T00:24:13.568Z,114.68
2023-02-19T00:26:42.257Z,122.97
2023-02-19T00:29:13.913Z,128.00
2023-02-19T00:34:11.218Z,119.47
2023-02-19T00:36:39.893Z,136.25
2023-02-19T00:39:08.269Z,136.75
2023-02-19T00:41:36.413Z,130.90
2023-02-19T00:44:06.588Z,129.95
2023-02-19T00:46:39.792Z,125.78
2023-02-19T00:49:09.620Z,130.60
2023-02-19T00:51:38.642Z,116.10
2023-02-19T00:54:06.510Z,132.63
2023-02-19T00:56:34.915Z,130.65
2023-02-19T00:59:02.992Z,130.18
2023-02-19T01:01:31.829Z,128.57
2023-02-19T01:03:59.547Z,132.52
2023-02-19T01:06:30.579Z,136.95
2023-02-19T01:08:58.724Z,145.70
2023-02-19T01:11:27.679Z,129.52
2023-02-19T01:13:59.648Z,130.35
2023-02-19T01:16:28.035Z,136.27
2023-02-19T01:18:57.212Z,139.45
2023-02-19T01:21:26.503Z,143.43
2023-02-19T01:23:54.366Z,137.43
2023-02-19T01:26:24.086Z,127.03
2023-02-19T01:28:52.238Z,137.90
2023-02-19T01:31:22.184Z,141.15
2023-02-19T01:33:55.178Z,142.73
2023-02-19T01:36:23.413Z,142.02
2023-02-19T01:38:51.336Z,143.18
2023-02-19T01:41:21.685Z,142.30
2023-02-19T01:44:10.037Z,137.13
2023-02-19T01:46:39.779Z,132.32
2023-02-19T01:49:13.255Z,131.10
2023-02-19T01:52:02.203Z,119.50
2023-02-19T01:54:33.479Z,113.38
2023-02-19T01:57:02.394Z,98.13
2023-02-19T01:59:31.712Z,108.43
2023-02-19T02:01:59.889Z,111.72
2023-02-19T02:04:27.670Z,137.60
2023-02-19T02:06:58.848Z,126.90
2023-02-19T02:09:46.736Z,125.53
2023-02-19T02:12:14.664Z,132.70
2023-02-19T02:14:44.904Z,143.57
2023-02-19T02:17:40.941Z,160.63
2023-02-19T02:20:08.645Z,192.68
2023-02-19T02:22:50.358Z,204.70
2023-02-19T02:25:40.041Z,203.23
2023-02-19T02:28:45.321Z,196.85
2023-02-19T02:31:17.673Z,182.05
2023-02-19T02:34:06.787Z,187.52
2023-02-19T02:36:37.653Z,160.32
2023-02-19T02:39:07.735Z,166.65
2023-02-19T02:41:44.965Z,142.68
2023-02-19T02:44:13.885Z,175.73
2023-02-19T02:46:42.896Z,190.55
2023-02-19T02:49:17.337Z,171.73
2023-02-19T02:51:48.293Z,189.85
2023-02-19T02:54:57.746Z,204.52
2023-02-19T02:57:25.887Z,159.07
2023-02-19T02:59:56.526Z,194.93
2023-02-19T03:02:27.269Z,170.18
2023-02-19T03:05:34.317Z,169.20
2023-02-19T03:08:17.182Z,183.23
2023-02-19T03:10:53.453Z,192.82
2023-02-19T03:13:49.942Z,177.63
2023-02-19T03:16:41.086Z,181.10
2023-02-19T03:19:20.480Z,178.32
2023-02-19T03:21:59.732Z,171.60
2023-02-19T03:24:52.008Z,176.93
2023-02-19T03:27:20.438Z,143.20
2023-02-19T03:29:52.788Z,141.73
2023-02-19T03:32:36.423Z,142.38
2023-02-19T03:35:14.925Z,213.63
2023-02-19T03:38:10.566Z,190.73
2023-02-19T03:40:51.488Z,182.93
2023-02-19T03:43:54.644Z,178.27
2023-02-19T03:46:47.437Z,180.63
2023-02-19T03:49:45.509Z,137.90
2023-02-19T03:52:46.681Z,163.88
2023-02-19T03:55:25.495Z,144.90
2023-02-19T03:58:12.259Z,150.38
2023-02-19T04:00:41.909Z,134.95
2023-02-19T04:04:00.934Z,132.27
2023-02-19T04:06:30.901Z,119.50
2023-02-19T04:09:01.692Z,117.18
2023-02-19T04:11:31.126Z,118.65
2023-02-19T04:14:11.134Z,124.10
2023-02-19T04:16:42.527Z,131.75
2023-02-19T04:19:12.361Z,125.38
2023-02-19T04:21:40.715Z,112.68
2023-02-19T04:24:12.142Z,112.22
2023-02-19T04:26:39.829Z,112.30
2023-02-19T04:29:07.566Z,117.35
2023-02-19T04:31:36.303Z,116.75
2023-02-19T04:34:04.623Z,115.18
2023-02-19T04:36:33.155Z,114.28
2023-02-19T04:39:01.421Z,114.43
2023-02-19T04:41:29.706Z,109.75
2023-02-19T04:43:58.114Z,100.68
2023-02-19T04:46:25.972Z,105.80
2023-02-19T04:48:54.122Z,102.68
2023-02-19T04:51:22.251Z,95.80
2023-02-19T04:53:50.340Z,99.13
2023-02-19T04:56:18.174Z,97.88
2023-02-19T04:58:46.070Z,99.65
2023-02-19T05:01:15.053Z,90.40
2023-02-19T05:03:43.251Z,85.40
2023-02-19T05:06:13.016Z,78.22
2023-02-19T05:08:41.456Z,73.18
2023-02-19T05:11:11.216Z,70.85
2023-02-19T05:13:39.677Z,65.50
2023-02-19T05:16:09.036Z,72.60
2023-02-19T05:18:36.823Z,71.43
2023-02-19T05:21:05.146Z,69.57
2023-02-19T05:23:33.162Z,68.65
2023-02-19T05:26:05.898Z,63.85
2023-02-19T05:28:33.969Z,59.38
2023-02-19T05:31:05.646Z,53.50
2023-02-19T05:33:33.809Z,61.03
2023-02-19T05:36:05.741Z,54.80
2023-02-19T05:38:34.177Z,51.92
2023-02-19T05:41:19.778Z,51.30
2023-02-19T05:43:48.970Z,50.13
2023-02-19T05:46:20.191Z,49.13
2023-02-19T05:48:48.962Z,47.30
2023-02-19T05:51:18.315Z,47.08
2023-02-19T05:53:46.476Z,49.10
2023-02-19T05:56:36.531Z,47.30
2023-02-19T05:59:24.066Z,48.05
2023-02-19T06:01:52.488Z,44.78
2023-02-19T06:04:20.814Z,44.72
2023-02-19T06:06:48.794Z,46.85
2023-02-19T06:09:16.856Z,46.85
2023-02-19T06:11:44.935Z,43.60
2023-02-19T06:14:14.199Z,41.63
2023-02-19T06:16:42.292Z,44.70
2023-02-19T06:19:10.436Z,44.42
2023-02-19T06:21:38.790Z,44.33
2023-02-19T06:24:08.562Z,45.05
2023-02-19T06:26:36.973Z,45.67
2023-02-19T06:29:04.884Z,47.13
2023-02-19T06:31:34.658Z,48.90
2023-02-19T06:34:05.388Z,47.35
2023-02-19T06:36:33.320Z,46.90
2023-02-19T06:39:01.594Z,46.90
2023-02-19T06:41:29.434Z,47.88
2023-02-19T06:44:00.283Z,45.72
2023-02-19T06:46:28.309Z,43.88
2023-02-19T06:48:57.122Z,47.20
2023-02-19T06:51:27.826Z,47.60
2023-02-19T06:53:55.826Z,50.72
2023-02-19T06:56:23.875Z,45.38
2023-02-19T06:58:52.629Z,50.03
2023-02-19T07:01:21.408Z,43.58
2023-02-19T07:03:49.427Z,40.35
2023-02-19T07:06:17.274Z,44.70
2023-02-19T07:08:45.571Z,41.03
2023-02-19T07:11:13.773Z,43.78
2023-02-19T07:13:41.585Z,40.00
2023-02-19T07:16:10.499Z,42.15
2023-02-19T07:18:38.674Z,40.10
2023-02-19T07:21:11.511Z,30.48
2023-02-19T07:23:39.719Z,36.80
2023-02-19T07:26:14.768Z,34.65
2023-02-19T07:28:46.795Z,35.40
2023-02-19T07:31:15.385Z,32.55
2023-02-19T07:33:47.236Z,29.83
2023-02-19T07:36:15.780Z,31.50
2023-02-19T07:38:43.824Z,29.83
2023-02-19T07:41:12.059Z,29.58
2023-02-19T07:43:40.186Z,29.25
2023-02-19T07:46:10.343Z,28.45
2023-02-19T07:48:38.774Z,29.17
2023-02-19T07:51:08.325Z,28.38
2023-02-19T07:53:36.698Z,27.70
2023-02-19T07:56:06.094Z,28.38
2023-02-19T07:58:34.090Z,25.13
2023-02-19T08:01:40.952Z,27.02
2023-02-19T08:04:12.833Z,25.45
2023-02-19T08:06:40.983Z,24.83
2023-02-19T08:09:08.901Z,25.75
2023-02-19T08:11:55.377Z,25.88
2023-02-19T08:14:27.230Z,25.90
2023-02-19T08:16:55.681Z,24.57
2023-02-19T08:19:23.603Z,24.75
2023-02-19T08:21:51.952Z,25.58
2023-02-19T08:24:20.057Z,25.42
2023-02-19T08:26:48.239Z,24.20
2023-02-19T08:29:15.947Z,23.92
2023-02-19T08:31:44.030Z,26.27
2023-02-19T08:34:12.154Z,25.38
2023-02-19T08:36:40.313Z,26.02
2023-02-19T08:39:08.561Z,26.70
2023-02-19T08:41:37.034Z,27.35
2023-02-19T08:44:04.974Z,23.95
2023-02-19T08:46:34.415Z,24.02
2023-02-19T08:49:02.907Z,25.48
2023-02-19T08:51:30.675Z,25.75
2023-02-19T08:53:58.762Z,25.77
2023-02-19T08:56:26.813Z,28.45
2023-02-19T08:58:55.574Z,27.02
2023-02-19T09:01:24.260Z,26.77
2023-02-19T09:03:52.182Z,26.40
2023-02-19T09:06:20.920Z,26.40
2023-02-19T09:08:49.116Z,25.60
2023-02-19T09:11:17.330Z,27.13
2023-02-19T09:13:45.309Z,27.48
2023-02-19T09:16:13.199Z,26.80
2023-02-19T09:18:41.328Z,27.33
2023-02-19T09:21:09.996Z,28.13
2023-02-19T09:23:38.245Z,28.65
2023-02-19T09:26:09.296Z,29.73
2023-02-19T09:28:37.933Z,31.63
2023-02-19T09:31:07.490Z,33.15
2023-02-19T09:33:35.678Z,32.97
2023-02-19T09:36:03.994Z,34.28
2023-02-19T09:38:32.197Z,33.80
2023-02-19T09:41:00.176Z,33.67
2023-02-19T09:43:28.830Z,31.08
2023-02-19T09:46:03.650Z,33.22
2023-02-19T09:48:31.484Z,31.58
2023-02-19T09:50:59.670Z,33.42
2023-02-19T09:53:30.154Z,34.72
2023-02-19T09:55:57.990Z,37.58
2023-02-19T09:58:27.532Z,35.55
2023-02-19T10:00:56.111Z,37.70
2023-02-19T10:03:31.521Z,36.95
2023-02-19T10:06:05.140Z,36.60
2023-02-19T10:08:35.278Z,38.72
2023-02-19T10:11:04.170Z,37.17
2023-02-19T10:14:10.826Z,39.00
2023-02-19T10:16:42.868Z,39.47
2023-02-19T10:19:18.887Z,40.80
2023-02-19T10:21:46.799Z,46.10
2023-02-19T10:24:21.471Z,43.42
2023-02-19T10:26:50.639Z,41.58
2023-02-19T10:29:20.058Z,40.38
2023-02-19T10:31:48.490Z,38.30
2023-02-19T10:34:22.614Z,32.17
2023-02-19T10:36:51.553Z,34.60
2023-02-19T10:39:45.279Z,31.92
2023-02-19T10:42:21.430Z,32.20
2023-02-19T10:44:59.257Z,32.20
2023-02-19T10:47:27.724Z,31.83
2023-02-19T10:49:57.517Z,34.05
2023-02-19T10:52:27.070Z,32.42
2023-02-19T10:55:16.533Z,32.08
2023-02-19T10:57:44.464Z,32.40
2023-02-19T11:00:30.847Z,33.22
2023-02-19T11:03:15.303Z,33.83
2023-02-19T11:06:03.187Z,29.33
2023-02-19T11:08:31.600Z,32.50
2023-02-19T11:10:59.727Z,32.38
2023-02-19T11:13:33.389Z,31.63
2023-02-19T11:16:01.566Z,31.00
2023-02-19T11:18:31.662Z,27.33
2023-02-19T11:21:01.114Z,26.20
2023-02-19T11:23:50.268Z,27.20
2023-02-19T11:26:23.671Z,25.92
2023-02-19T11:29:02.033Z,24.60
2023-02-19T11:31:33.859Z,26.55
2023-02-19T11:34:02.455Z,26.70
2023-02-19T11:36:39.717Z,27.60
2023-02-19T11:39:10.776Z,29.48
2023-02-19T11:42:03.272Z,28.50
2023-02-19T11:44:37.154Z,27.63
2023-02-19T11:47:26.948Z,25.40
2023-02-19T11:50:09.460Z,23.65
2023-02-19T11:52:43.408Z,24.00
2023-02-19T11:55:18.514Z,24.38
2023-02-19T11:58:03.607Z,24.05
2023-02-19T12:00:31.772Z,26.58
2023-02-19T12:03:21.828Z,27.77
2023-02-19T12:06:04.990Z,27.67
2023-02-19T12:08:42.154Z,29.42
2023-02-19T12:11:19.144Z,30.00
2023-02-19T12:14:19.035Z,30.75
2023-02-19T12:17:02.621Z,30.48
2023-02-19T12:19:33.465Z,36.35
2023-02-19T12:22:41.982Z,37.20
2023-02-19T12:25:29.336Z,35.65
2023-02-19T12:28:10.190Z,37.53
2023-02-19T12:31:00.454Z,36.78
2023-02-19T12:33:46.863Z,39.38
2023-02-19T12:36:59.897Z,50.15
2023-02-19T12:39:40.084Z,53.97
2023-02-19T12:42:11.979Z,80.22
2023-02-19T12:44:47.516Z,89.13
2023-02-19T12:47:21.415Z,95.07
2023-02-19T12:50:17.462Z,92.20
2023-02-19T12:52:47.276Z,69.30
2023-02-19T12:55:36.998Z,75.43
2023-02-19T12:58:06.581Z,92.30
2023-02-19T13:00:45.817Z,106.13
2023-02-19T13:03:23.602Z,63.38
2023-02-19T13:06:22.409Z,43.63
2023-02-19T13:09:19.354Z,44.90
2023-02-19T13:12:06.235Z,49.30
2023-02-19T13:14:43.133Z,49.95
2023-02-19T13:17:25.152Z,53.13
2023-02-19T13:19:58.058Z,46.22
2023-02-19T13:25:56.671Z,55.25
2023-02-19T13:28:43.304Z,58.45
2023-02-19T13:31:41.217Z,77.60
2023-02-19T13:34:33.613Z,88.65
2023-02-19T13:37:01.791Z,85.53
2023-02-19T13:39:31.135Z,85.75
2023-02-19T13:42:02.192Z,80.95
2023-02-19T13:44:34.265Z,89.00
2023-02-19T13:47:06.834Z,78.78
2023-02-19T13:49:35.034Z,66.60
2023-02-19T13:52:24.908Z,68.20
2023-02-19T13:54:53.505Z,83.63
2023-02-19T13:57:24.916Z,88.38
2023-02-19T14:00:02.083Z,96.38
2023-02-19T14:02:35.946Z,99.70
2023-02-19T14:05:11.575Z,106.45
2023-02-19T14:07:51.369Z,109.78
2023-02-19T14:10:58.413Z,113.20
2023-02-19T14:13:52.437Z,106.10
2023-02-19T14:16:50.133Z,98.85
2023-02-19T14:19:43.353Z,99.53
2023-02-19T14:22:48.303Z,100.88
2023-02-19T14:25:31.501Z,99.63
2023-02-19T14:28:08.140Z,96.28
2023-02-19T14:30:52.899Z,98.50
2023-02-19T14:33:26.164Z,111.90
2023-02-19T14:36:22.981Z,106.57
2023-02-19T14:39:28.316Z,115.22
2023-02-19T14:42:16.863Z,123.53
2023-02-19T14:44:53.263Z,139.40
2023-02-19T14:47:22.551Z,133.65
2023-02-19T14:49:51.894Z,145.98
2023-02-19T14:52:25.557Z,154.38
2023-02-19T14:55:02.275Z,154.05
2023-02-19T14:57:34.521Z,151.40
2023-02-19T15:00:20.320Z,156.98
2023-02-19T15:02:48.537Z,161.70
2023-02-19T15:05:23.652Z,226.88
2023-02-19T15:07:52.037Z,222.45
2023-02-19T15:10:20.251Z,225.82
2023-02-19T15:12:52.770Z,246.10
2023-02-19T15:15:26.631Z,240.30
2023-02-19T15:17:54.835Z,217.70
2023-02-19T15:20:27.978Z,204.27
2023-02-19T15:22:56.723Z,193.02
2023-02-19T15:25:26.779Z,188.25
2023-02-19T15:27:54.987Z,165.60
2023-02-19T15:30:29.755Z,171.93
2023-02-19T15:32:59.705Z,174.65
2023-02-19T15:35:28.842Z,172.10
2023-02-19T15:37:56.821Z,162.85
2023-02-19T15:40:33.379Z,161.15
2023-02-19T15:43:01.603Z,146.63
2023-02-19T15:45:29.702Z,152.48
2023-02-19T15:48:08.874Z,166.02
2023-02-19T15:50:40.265Z,160.38
2023-02-19T15:53:10.637Z,164.13
2023-02-19T15:55:48.787Z,153.63
2023-02-19T15:58:28.874Z,148.40
2023-02-19T16:01:00.107Z,155.13
2023-02-19T16:03:28.458Z,146.63
2023-02-19T16:06:15.681Z,153.75
2023-02-19T16:08:48.284Z,151.13
2023-02-19T16:13:53.932Z,132.90
2023-02-19T16:16:27.265Z,146.60
2023-02-19T16:18:55.347Z,148.38
2023-02-19T16:21:26.269Z,127.85
2023-02-19T16:24:15.132Z,132.38
2023-02-19T16:26:43.757Z,137.15
2023-02-19T16:29:28.780Z,151.60
2023-02-19T16:31:59.093Z,137.45
2023-02-19T16:34:35.007Z,127.55
2023-02-19T16:37:03.449Z,139.85
2023-02-19T16:39:31.292Z,151.52
2023-02-19T16:42:02.663Z,138.45
2023-02-19T16:44:31.587Z,137.60
2023-02-19T16:47:04.384Z,134.05
2023-02-19T16:51:59.937Z,145.18
2023-02-19T16:54:28.527Z,144.88
2023-02-19T16:56:56.853Z,99.82
2023-02-19T16:59:25.071Z,117.97
2023-02-19T17:01:53.227Z,118.15
2023-02-19T17:04:21.269Z,98.43
2023-02-19T17:06:49.054Z,119.30
2023-02-19T17:09:16.945Z,128.05
2023-02-19T17:11:44.729Z,117.63
2023-02-19T17:14:12.434Z,123.65
2023-02-19T17:16:40.866Z,130.32
2023-02-19T17:19:17.455Z,127.53
2023-02-19T17:21:45.833Z,129.20
2023-02-19T17:24:13.932Z,125.00
2023-02-19T17:26:41.840Z,122.65
2023-02-19T17:29:14.339Z,120.28
2023-02-19T17:31:42.564Z,118.35
2023-02-19T17:34:10.822Z,118.60
2023-02-19T17:36:38.709Z,115.03
2023-02-19T17:39:14.981Z,131.43
2023-02-19T17:41:42.756Z,100.28
2023-02-19T17:44:11.178Z,122.20
2023-02-19T17:46:39.499Z,122.47
2023-02-19T17:49:07.884Z,130.75
2023-02-19T17:51:36.066Z,126.60
2023-02-19T17:54:04.554Z,120.72
2023-02-19T17:56:33.270Z,108.10
2023-02-19T17:59:01.004Z,100.20
2023-02-19T18:01:28.945Z,112.88
2023-02-19T18:03:56.811Z,112.25
2023-02-19T18:06:24.585Z,115.00
2023-02-19T18:08:53.606Z,115.72
2023-02-19T18:11:23.672Z,110.93
2023-02-19T18:13:51.989Z,128.93
2023-02-19T18:16:20.387Z,125.32
2023-02-19T18:18:48.226Z,112.43
2023-02-19T18:21:16.648Z,106.07
2023-02-19T18:23:46.416Z,88.00
2023-02-19T18:26:19.224Z,91.28
2023-02-19T18:28:47.236Z,86.28
2023-02-19T18:31:15.644Z,83.20
2023-02-19T18:33:43.962Z,101.80
2023-02-19T18:36:13.131Z,108.63
2023-02-19T18:38:41.164Z,115.45
2023-02-19T18:41:12.937Z,111.50
2023-02-19T18:43:42.505Z,120.50
2023-02-19T18:46:10.493Z,117.57
2023-02-19T18:48:38.436Z,101.72
2023-02-19T18:51:09.789Z,111.57
2023-02-19T18:53:38.470Z,106.23
2023-02-19T18:56:09.322Z,98.35
2023-02-19T18:58:37.399Z,105.10
2023-02-19T19:01:05.739Z,106.07
2023-02-19T19:03:33.596Z,108.20
2023-02-19T19:06:03.718Z,106.25
2023-02-19T19:08:31.915Z,111.70
2023-02-19T19:10:59.860Z,110.45
2023-02-19T19:13:27.797Z,111.03
2023-02-19T19:15:55.547Z,111.43
2023-02-19T19:18:23.903Z,109.35
2023-02-19T19:20:51.935Z,105.40
2023-02-19T19:23:19.729Z,108.30
2023-02-19T19:25:47.781Z,111.55
2023-02-19T19:28:15.559Z,108.43
2023-02-19T19:30:43.775Z,105.93
2023-02-19T19:33:12.110Z,108.97
2023-02-19T19:35:41.854Z,107.10
2023-02-19T19:38:10.482Z,105.82
2023-02-19T19:40:39.053Z,102.70
2023-02-19T19:43:06.943Z,107.38
2023-02-19T19:45:35.107Z,106.05
2023-02-19T19:48:02.865Z,107.03
2023-02-19T19:50:31.321Z,109.20
2023-02-19T19:52:59.709Z,114.13
2023-02-19T19:55:27.428Z,112.03
2023-02-19T19:57:55.168Z,110.70
2023-02-19T20:00:24.857Z,112.18
2023-02-19T20:02:53.394Z,105.63
2023-02-19T20:05:21.345Z,104.53
2023-02-19T20:07:50.368Z,102.65
2023-02-19T20:10:19.935Z,114.25
2023-02-19T20:12:48.131Z,113.40
2023-02-19T20:15:20.849Z,112.75
2023-02-19T20:17:49.350Z,106.93
2023-02-19T20:20:18.492Z,103.68
2023-02-19T20:22:46.796Z,91.35
2023-02-19T20:25:14.783Z,79.72
2023-02-19T20:27:43.125Z,78.55
2023-02-19T20:30:12.553Z,78.05
2023-02-19T20:32:40.940Z,81.93
2023-02-19T20:35:08.742Z,99.55
2023-02-19T20:37:40.279Z,95.53
2023-02-19T20:40:08.613Z,97.38
2023-02-19T20:42:36.636Z,89.43
2023-02-19T20:45:05.869Z,83.82
2023-02-19T20:47:33.632Z,87.53
2023-02-19T20:50:01.912Z,94.15
2023-02-19T20:52:30.181Z,96.75
2023-02-19T20:54:58.229Z,95.63
2023-02-19T20:57:25.931Z,105.55
2023-02-19T20:59:54.378Z,104.60
2023-02-19T21:02:24.981Z,99.38
2023-02-19T21:04:52.806Z,106.60
2023-02-19T21:07:20.773Z,103.82
2023-02-19T21:09:48.817Z,100.07
2023-02-19T21:12:17.301Z,121.07
2023-02-19T21:14:45.382Z,118.38
2023-02-19T21:17:13.465Z,118.03
2023-02-19T21:19:41.840Z,118.70
2023-02-19T21:22:09.909Z,110.45
2023-02-19T21:24:38.137Z,118.10
2023-02-19T21:27:05.839Z,121.00
2023-02-19T21:29:33.739Z,129.15
2023-02-19T21:32:02.165Z,125.78
2023-02-19T21:34:30.870Z,136.43
2023-02-19T21:37:00.417Z,142.30
2023-02-19T21:39:28.601Z,142.18
2023-02-19T21:41:58.949Z,155.85
2023-02-19T21:44:27.049Z,183.38
2023-02-19T21:46:54.840Z,191.75
2023-02-19T21:49:22.896Z,199.48
2023-02-19T21:51:50.998Z,203.32
2023-02-19T21:54:22.121Z,169.77
2023-02-19T21:56:49.928Z,180.75
2023-02-19T21:59:17.761Z,181.65
2023-02-19T22:01:46.172Z,182.13
2023-02-19T22:04:15.806Z,197.73
2023-02-19T22:06:43.727Z,196.15
2023-02-19T22:09:11.751Z,180.93
2023-02-19T22:11:39.504Z,156.60
2023-02-19T22:14:07.626Z,184.35
2023-02-19T22:16:35.327Z,190.95
2023-02-19T22:19:03.564Z,186.52
2023-02-19T22:21:33.263Z,181.02
2023-02-19T22:24:02.181Z,178.57
2023-02-19T22:26:35.235Z,175.27
2023-02-19T22:29:08.421Z,171.18
2023-02-19T22:31:36.891Z,171.77
2023-02-19T22:34:04.865Z,146.07
2023-02-19T22:36:33.980Z,152.35
2023-02-19T22:39:02.616Z,115.82
2023-02-19T22:41:31.017Z,140.65
2023-02-19T22:43:59.417Z,143.88
2023-02-19T22:46:31.043Z,135.05
2023-02-19T22:48:58.952Z,142.63
2023-02-19T22:51:26.676Z,142.63
2023-02-19T22:53:56.060Z,147.40
2023-02-19T22:56:27.759Z,153.07
2023-02-19T22:58:56.709Z,158.43
2023-02-19T23:01:24.660Z,151.35
2023-02-19T23:03:54.943Z,157.80
2023-02-19T23:06:27.810Z,164.73
2023-02-19T23:08:57.023Z,151.45
2023-02-19T23:11:30.468Z,169.52
2023-02-19T23:13:58.350Z,167.00
2023-02-19T23:16:26.522Z,132.95
2023-02-19T23:18:55.036Z,127.13
2023-02-19T23:21:23.129Z,138.93
2023-02-19T23:23:51.512Z,166.18
2023-02-19T23:26:20.222Z,133.38
2023-02-19T23:28:48.504Z,157.50
2023-02-19T23:31:16.645Z,149.70
2023-02-19T23:33:44.954Z,145.40
2023-02-19T23:36:13.313Z,173.98
2023-02-19T23:38:41.422Z,134.85
2023-02-19T23:41:12.558Z,103.70
2023-02-19T23:43:40.743Z,100.35
2023-02-19T23:46:08.865Z,94.07
2023-02-19T23:48:37.192Z,136.50
2023-02-19T23:51:05.173Z,154.02
2023-02-19T23:53:33.290Z,163.10
2023-02-19T23:56:01.006Z,169.05
2023-02-19T23:58:29.230Z,172.98
